LHBP/BUD METAR and TAF weather

Enter ICAO airport designator
Station Type Date Time Source
LHBP METAR 2019/08/22 04:30 UTC NOAA

LHBP 220430Z VRB01KT CAVOK 16/16 Q1024 NOSIG


Station Type Date Time Source
LHBP Decoded METAR 2019/08/22 04:30 UTC NOAA

Station name not available
Aug 22, 2019 - 12:30 AM EDT / 2019.08.22 0430 UTC
Wind: Variable at 1 MPH (1 KT):0
Visibility: greater than 7 mile(s):0
Temperature: 60 F (16 C)
Dew Point: 60 F (16 C)
Relative Humidity: 100%
Pressure (altimeter): 30.24 in. Hg (1024 hPa)
ob: LHBP 220430Z VRB01KT CAVOK 16/16 Q1024 NOSIG
cycle: 4

Station Type Date Time Source
LHBP TAF 2019/08/21 18:27 UTC NOAA

TAF TAF LHBP 211715Z 2118/2218 30014KT CAVOK
BECMG 2120/2123 36004KT
BECMG 2208/2210 04010KT

Example: see airport list